createdAt,value
2022-11-03T00:00:48.061Z,32.85
2022-11-03T00:02:49.582Z,30.67
2022-11-03T00:04:51.207Z,32.10
2022-11-03T00:06:54.723Z,31.75
2022-11-03T00:09:00.502Z,31.90
2022-11-03T00:11:09.158Z,33.25
2022-11-03T00:13:10.587Z,26.80
2022-11-03T00:15:12.054Z,32.63
2022-11-03T00:17:13.512Z,29.02
2022-11-03T00:19:16.996Z,29.10
2022-11-03T00:21:18.509Z,28.98
2022-11-03T00:23:20.015Z,29.80
2022-11-03T00:25:21.550Z,31.23
2022-11-03T00:27:23.033Z,31.90
2022-11-03T00:29:25.073Z,35.63
2022-11-03T00:31:32.010Z,41.42
2022-11-03T00:33:34.184Z,38.92
2022-11-03T00:35:35.751Z,33.92
2022-11-03T00:37:37.275Z,30.73
2022-11-03T00:39:38.753Z,31.02
2022-11-03T00:41:40.915Z,30.20
2022-11-03T00:43:42.894Z,25.77
2022-11-03T00:45:44.318Z,26.58
2022-11-03T00:48:04.315Z,24.33
2022-11-03T00:50:05.937Z,26.33
2022-11-03T00:52:07.451Z,24.88
2022-11-03T00:54:09.036Z,30.75
2022-11-03T00:56:15.714Z,29.33
2022-11-03T00:58:17.281Z,25.83
2022-11-03T01:00:18.923Z,24.92
2022-11-03T01:02:20.450Z,24.17
2022-11-03T01:04:40.688Z,23.20
2022-11-03T01:06:51.408Z,24.77
2022-11-03T01:08:53.231Z,26.00
2022-11-03T01:11:13.256Z,24.00
2022-11-03T01:13:14.950Z,24.30
2022-11-03T01:15:16.451Z,24.90
2022-11-03T01:17:20.612Z,23.38
2022-11-03T01:19:22.466Z,24.05
2022-11-03T01:21:24.693Z,24.30
2022-11-03T01:23:26.215Z,25.45
2022-11-03T01:25:27.667Z,25.08
2022-11-03T01:27:29.179Z,26.10
2022-11-03T01:29:30.669Z,28.10
2022-11-03T01:31:32.314Z,31.05
2022-11-03T01:33:33.895Z,35.05
2022-11-03T01:35:35.347Z,34.53
2022-11-03T01:37:36.855Z,40.55
2022-11-03T01:39:38.323Z,51.22
2022-11-03T01:41:40.945Z,58.80
2022-11-03T01:43:42.711Z,54.40
2022-11-03T01:45:45.158Z,82.15
2022-11-03T01:47:47.184Z,82.25
2022-11-03T01:49:55.021Z,60.70
2022-11-03T01:52:17.597Z,76.07
2022-11-03T01:54:24.175Z,82.90
2022-11-03T01:56:26.911Z,63.22
2022-11-03T01:58:31.397Z,44.60
2022-11-03T02:00:33.294Z,37.42
2022-11-03T02:02:34.985Z,36.03
2022-11-03T02:04:36.640Z,35.03
2022-11-03T02:06:38.195Z,34.72
2022-11-03T02:08:49.215Z,35.28
2022-11-03T02:10:51.701Z,29.83
2022-11-03T02:12:53.643Z,30.63
2022-11-03T02:15:00.733Z,29.70
2022-11-03T02:17:07.725Z,32.90
2022-11-03T02:19:25.442Z,33.50
2022-11-03T02:21:37.362Z,32.33
2022-11-03T02:23:47.162Z,29.27
2022-11-03T02:27:51.826Z,26.05
2022-11-03T02:29:53.566Z,27.88
2022-11-03T02:32:06.133Z,29.38
2022-11-03T02:34:15.930Z,29.23
2022-11-03T02:36:31.411Z,28.10
2022-11-03T02:38:36.367Z,25.55
2022-11-03T02:40:43.254Z,27.00
2022-11-03T02:42:50.940Z,28.35
2022-11-03T02:44:54.134Z,28.95
2022-11-03T02:47:00.731Z,24.98
2022-11-03T02:49:02.300Z,23.08
2022-11-03T02:51:05.068Z,23.50
2022-11-03T02:53:06.633Z,24.05
2022-11-03T02:55:11.300Z,25.45
2022-11-03T02:57:21.236Z,24.30
2022-11-03T02:59:29.563Z,25.35
2022-11-03T03:01:37.326Z,28.25
2022-11-03T03:03:48.167Z,30.48
2022-11-03T03:05:54.061Z,31.15
2022-11-03T03:08:03.667Z,32.88
2022-11-03T03:10:12.691Z,48.83
2022-11-03T03:12:17.295Z,49.55
2022-11-03T03:14:22.890Z,45.08
2022-11-03T03:16:31.171Z,51.10
2022-11-03T03:18:45.306Z,74.28
2022-11-03T03:20:55.076Z,36.00
2022-11-03T03:25:06.615Z,25.48
2022-11-03T03:27:12.656Z,27.58
2022-11-03T03:29:17.391Z,27.48
2022-11-03T03:31:20.502Z,24.85
2022-11-03T03:33:22.881Z,22.70
2022-11-03T03:35:27.503Z,21.52
2022-11-03T03:37:30.995Z,27.92
2022-11-03T03:39:36.587Z,25.35
2022-11-03T03:41:39.355Z,26.50
2022-11-03T03:43:42.089Z,27.67
2022-11-03T03:45:46.115Z,31.38
2022-11-03T03:47:48.093Z,21.85
2022-11-03T03:49:49.931Z,18.73
2022-11-03T03:51:51.642Z,19.00
2022-11-03T03:53:53.783Z,17.42
2022-11-03T03:55:55.780Z,18.83
2022-11-03T03:57:59.493Z,17.60
2022-11-03T04:00:02.103Z,17.55
2022-11-03T04:02:03.681Z,17.92
2022-11-03T04:04:05.402Z,18.40
2022-11-03T04:06:08.075Z,20.27
2022-11-03T04:08:10.812Z,20.40
2022-11-03T04:10:12.327Z,21.08
2022-11-03T04:12:32.664Z,19.67
2022-11-03T04:14:52.752Z,27.50
2022-11-03T04:17:12.659Z,60.83
2022-11-03T04:19:32.594Z,37.05
2022-11-03T04:21:52.599Z,26.83
2022-11-03T04:23:54.096Z,25.83
2022-11-03T04:25:57.134Z,26.40
2022-11-03T04:27:58.645Z,40.33
2022-11-03T04:30:10.260Z,59.05
2022-11-03T04:32:17.813Z,57.88
2022-11-03T04:34:19.280Z,26.48
2022-11-03T04:36:23.633Z,25.77
2022-11-03T04:38:27.299Z,25.25
2022-11-03T04:40:29.182Z,29.98
2022-11-03T04:42:33.247Z,33.22
2022-11-03T04:44:34.735Z,27.00
2022-11-03T04:46:36.205Z,23.42
2022-11-03T04:48:37.924Z,24.10
2022-11-03T04:50:45.560Z,31.23
2022-11-03T04:52:51.450Z,35.43
2022-11-03T04:54:53.983Z,40.40
2022-11-03T04:56:55.895Z,75.13
2022-11-03T04:58:58.555Z,143.32
2022-11-03T05:01:01.533Z,111.32
2022-11-03T05:03:03.779Z,105.07
2022-11-03T05:05:16.855Z,110.10
2022-11-03T05:07:36.128Z,96.55
2022-11-03T05:09:41.793Z,60.45
2022-11-03T05:11:46.405Z,42.30
2022-11-03T05:13:48.926Z,36.92
2022-11-03T05:15:52.098Z,37.72
2022-11-03T05:17:53.693Z,54.22
2022-11-03T05:19:58.965Z,65.57
2022-11-03T05:22:02.762Z,45.70
2022-11-03T05:24:11.675Z,35.78
2022-11-03T05:26:34.161Z,32.92
2022-11-03T05:28:39.470Z,38.45
2022-11-03T05:30:40.975Z,37.58
2022-11-03T05:32:42.431Z,31.88
2022-11-03T05:34:47.618Z,34.35
2022-11-03T05:36:49.072Z,33.67
2022-11-03T05:38:54.240Z,32.38
2022-11-03T05:40:55.730Z,33.88
2022-11-03T05:42:59.787Z,31.50
2022-11-03T05:45:04.648Z,28.23
2022-11-03T05:47:39.572Z,26.23
2022-11-03T05:49:41.076Z,26.73
2022-11-03T05:51:45.238Z,32.03
2022-11-03T05:53:49.983Z,30.23
2022-11-03T05:55:51.971Z,27.25
2022-11-03T05:57:59.488Z,25.33
2022-11-03T06:00:01.182Z,25.70
2022-11-03T06:02:05.658Z,24.60
2022-11-03T06:04:24.788Z,24.23
2022-11-03T06:06:38.424Z,21.77
2022-11-03T06:08:43.108Z,20.65
2022-11-03T06:10:53.769Z,22.55
2022-11-03T06:13:31.131Z,20.33
2022-11-03T06:15:35.142Z,20.48
2022-11-03T06:17:37.995Z,19.63
2022-11-03T06:19:47.971Z,21.20
2022-11-03T06:21:51.556Z,20.10
2022-11-03T06:23:54.972Z,20.48
2022-11-03T06:25:57.338Z,34.28
2022-11-03T06:28:05.181Z,22.05
2022-11-03T06:30:24.077Z,19.50
2022-11-03T06:32:25.726Z,20.95
2022-11-03T06:34:49.322Z,23.40
2022-11-03T06:36:50.856Z,28.48
2022-11-03T06:39:02.304Z,24.10
2022-11-03T06:41:03.824Z,19.67
2022-11-03T06:43:28.780Z,20.95
2022-11-03T06:45:30.434Z,20.05
2022-11-03T06:47:32.961Z,15.18
2022-11-03T06:49:36.049Z,14.10
2022-11-03T06:51:37.509Z,14.18
2022-11-03T06:53:39.032Z,14.57
2022-11-03T06:55:40.620Z,12.73
2022-11-03T06:57:44.482Z,11.32
2022-11-03T06:59:46.113Z,13.02
2022-11-03T07:01:53.451Z,13.00
2022-11-03T07:04:01.758Z,16.80
2022-11-03T07:06:21.191Z,10.65
2022-11-03T07:08:47.909Z,10.60
2022-11-03T07:10:51.895Z,11.82
2022-11-03T07:12:55.256Z,9.80
2022-11-03T07:14:58.751Z,8.18
2022-11-03T07:17:05.649Z,7.88
2022-11-03T07:19:15.133Z,7.65
2022-11-03T07:21:38.251Z,7.70
2022-11-03T07:23:42.154Z,7.13
2022-11-03T07:25:54.435Z,7.35
2022-11-03T07:27:57.408Z,8.05
2022-11-03T07:30:03.597Z,8.02
2022-11-03T07:32:18.567Z,8.50
2022-11-03T07:34:23.766Z,8.43
2022-11-03T07:36:29.370Z,8.65
2022-11-03T07:38:33.367Z,9.63
2022-11-03T07:40:35.229Z,8.10
2022-11-03T07:42:36.666Z,9.13
2022-11-03T07:44:38.571Z,8.88
2022-11-03T07:46:40.083Z,8.50
2022-11-03T07:48:46.935Z,8.48
2022-11-03T07:50:50.324Z,9.30
2022-11-03T07:52:51.803Z,10.50
2022-11-03T07:54:56.024Z,10.93
2022-11-03T07:57:01.030Z,9.38
2022-11-03T07:59:16.437Z,9.65
2022-11-03T08:01:34.845Z,10.00
2022-11-03T08:03:46.253Z,9.93
2022-11-03T08:05:47.707Z,10.32
2022-11-03T08:07:49.218Z,10.48
2022-11-03T08:09:51.736Z,12.43
2022-11-03T08:11:53.274Z,11.52
2022-11-03T08:13:54.873Z,11.10
2022-11-03T08:15:56.344Z,12.23
2022-11-03T08:17:57.984Z,11.63
2022-11-03T08:19:59.498Z,11.35
2022-11-03T08:22:00.958Z,19.92
2022-11-03T08:24:02.535Z,16.65
2022-11-03T08:26:04.570Z,10.45
2022-11-03T08:28:06.711Z,9.23
2022-11-03T08:30:11.100Z,9.90
2022-11-03T08:32:12.579Z,9.75
2022-11-03T08:34:14.044Z,8.43
2022-11-03T08:36:15.564Z,18.27
2022-11-03T08:38:17.019Z,8.30
2022-11-03T08:40:18.766Z,7.85
2022-11-03T08:42:20.223Z,8.40
2022-11-03T08:44:21.674Z,7.70
2022-11-03T08:46:23.265Z,7.03
2022-11-03T08:48:27.434Z,6.40
2022-11-03T08:50:29.032Z,6.35
2022-11-03T08:52:30.577Z,6.70
2022-11-03T08:54:32.120Z,5.93
2022-11-03T08:56:33.594Z,5.55
2022-11-03T08:58:35.153Z,5.53
2022-11-03T09:00:40.770Z,8.60
2022-11-03T09:02:45.841Z,5.50
2022-11-03T09:04:47.500Z,5.47
2022-11-03T09:06:49.024Z,5.00
2022-11-03T09:11:12.434Z,5.55
2022-11-03T09:13:14.492Z,4.50
2022-11-03T09:15:16.031Z,5.57
2022-11-03T09:17:17.507Z,5.20
2022-11-03T09:19:19.099Z,5.00
2022-11-03T09:21:20.610Z,5.63
2022-11-03T09:23:22.592Z,5.65
2022-11-03T09:25:24.203Z,5.82
2022-11-03T09:27:25.660Z,5.35
2022-11-03T09:29:30.170Z,5.43
2022-11-03T09:31:42.095Z,4.57
2022-11-03T09:33:43.561Z,3.78
2022-11-03T09:35:45.403Z,3.80
2022-11-03T09:37:46.961Z,4.03
2022-11-03T09:39:48.550Z,4.25
2022-11-03T09:41:58.545Z,4.70
2022-11-03T09:44:01.189Z,3.78
2022-11-03T09:46:02.979Z,3.92
2022-11-03T09:48:05.699Z,3.13
2022-11-03T09:50:13.748Z,2.75
2022-11-03T09:52:21.191Z,3.33
2022-11-03T09:54:22.995Z,3.40
2022-11-03T09:56:26.891Z,2.80
2022-11-03T09:58:28.371Z,3.08
2022-11-03T10:00:30.130Z,2.63
2022-11-03T10:02:32.505Z,2.60
2022-11-03T10:04:34.023Z,2.90
2022-11-03T10:06:35.531Z,2.90
2022-11-03T10:08:39.827Z,2.85
2022-11-03T10:10:41.746Z,2.65
2022-11-03T10:12:43.460Z,2.70
2022-11-03T10:14:46.764Z,2.20
2022-11-03T10:17:00.473Z,2.28
2022-11-03T10:19:02.081Z,2.50
2022-11-03T10:21:23.759Z,2.20
2022-11-03T10:23:25.186Z,2.70
2022-11-03T10:25:37.958Z,2.85
2022-11-03T10:27:39.745Z,2.10
2022-11-03T10:29:43.719Z,2.40
2022-11-03T10:31:53.923Z,2.00
2022-11-03T10:33:56.176Z,2.28
2022-11-03T10:36:02.425Z,2.70
2022-11-03T10:38:28.984Z,2.55
2022-11-03T10:40:47.681Z,1.88
2022-11-03T10:42:59.510Z,1.85
2022-11-03T10:45:19.383Z,2.35
2022-11-03T10:49:43.847Z,3.53
2022-11-03T10:51:49.377Z,2.33
2022-11-03T10:53:50.875Z,2.85
2022-11-03T10:55:52.530Z,2.35
2022-11-03T10:57:55.850Z,2.80
2022-11-03T10:59:58.273Z,2.42
2022-11-03T11:02:01.240Z,2.78
2022-11-03T11:04:04.662Z,3.00
2022-11-03T11:06:06.318Z,2.20
2022-11-03T11:08:09.670Z,2.63
2022-11-03T11:10:18.614Z,3.22
2022-11-03T11:12:26.043Z,3.15
2022-11-03T11:14:40.107Z,3.15
2022-11-03T11:16:59.353Z,4.20
2022-11-03T11:19:22.632Z,2.47
2022-11-03T11:21:28.102Z,2.72
2022-11-03T11:23:48.104Z,2.70
2022-11-03T11:26:14.262Z,2.60
2022-11-03T11:28:20.065Z,2.55
2022-11-03T11:30:21.463Z,3.35
2022-11-03T11:32:46.502Z,2.42
2022-11-03T11:34:48.111Z,3.83
2022-11-03T11:36:55.586Z,6.75
2022-11-03T11:38:58.567Z,2.38
2022-11-03T11:41:00.102Z,2.67
2022-11-03T11:43:01.843Z,2.85
2022-11-03T11:45:04.022Z,3.33
2022-11-03T11:47:22.266Z,2.40
2022-11-03T11:49:23.777Z,2.50
2022-11-03T11:51:25.407Z,3.15
2022-11-03T11:53:31.869Z,2.90
2022-11-03T11:55:55.922Z,3.47
2022-11-03T11:57:59.560Z,2.95
2022-11-03T12:00:01.601Z,2.70
2022-11-03T12:02:03.561Z,2.35
2022-11-03T12:06:34.576Z,2.50
2022-11-03T12:08:36.161Z,2.97
2022-11-03T12:10:37.733Z,2.20
2022-11-03T12:12:39.183Z,2.08
2022-11-03T12:14:41.201Z,2.10
2022-11-03T12:16:42.631Z,2.20
2022-11-03T12:18:50.179Z,2.15
2022-11-03T12:20:51.903Z,1.67
2022-11-03T12:22:53.396Z,1.95
2022-11-03T12:24:56.819Z,2.30
2022-11-03T12:26:59.615Z,2.50
2022-11-03T12:29:01.113Z,2.95
2022-11-03T12:31:03.835Z,2.17
2022-11-03T12:33:05.563Z,2.45
2022-11-03T12:35:09.210Z,2.00
2022-11-03T12:37:10.851Z,2.28
2022-11-03T12:39:12.647Z,2.10
2022-11-03T12:41:24.737Z,2.28
2022-11-03T12:43:26.191Z,2.03
2022-11-03T12:45:27.666Z,2.42
2022-11-03T12:47:29.197Z,3.08
2022-11-03T12:49:31.717Z,2.65
2022-11-03T12:51:33.166Z,5.13
2022-11-03T12:53:34.599Z,4.75
2022-11-03T12:55:37.275Z,2.13
2022-11-03T12:57:40.940Z,2.42
2022-11-03T12:59:43.358Z,2.53
2022-11-03T13:01:45.030Z,3.75
2022-11-03T13:03:46.634Z,2.67
2022-11-03T13:05:49.022Z,4.32
2022-11-03T13:07:50.576Z,4.78
2022-11-03T13:09:52.169Z,4.13
2022-11-03T13:12:12.630Z,2.28
2022-11-03T13:14:14.190Z,4.70
2022-11-03T13:16:15.657Z,4.75
2022-11-03T13:18:17.139Z,5.20
2022-11-03T13:20:18.732Z,3.30
2022-11-03T13:22:20.645Z,2.90
2022-11-03T13:24:22.225Z,3.28
2022-11-03T13:26:23.694Z,3.00
2022-11-03T13:28:25.352Z,4.25
2022-11-03T13:30:27.693Z,2.90
2022-11-03T13:32:29.328Z,3.25
2022-11-03T13:34:31.187Z,3.00
2022-11-03T13:36:32.764Z,3.45
2022-11-03T13:38:34.379Z,3.40
2022-11-03T13:40:55.396Z,3.58
2022-11-03T13:42:57.448Z,3.40
2022-11-03T13:44:58.964Z,4.68
2022-11-03T13:47:00.827Z,4.15
2022-11-03T13:49:52.107Z,4.07
2022-11-03T13:51:23.888Z,2.90
2022-11-03T13:55:47.138Z,3.72
2022-11-03T14:00:14.020Z,3.65
2022-11-03T14:06:41.320Z,3.00
2022-11-03T14:08:42.919Z,4.10
2022-11-03T14:10:46.572Z,3.83
2022-11-03T14:12:48.082Z,3.83
2022-11-03T14:14:49.595Z,3.33
2022-11-03T14:16:51.146Z,3.83
2022-11-03T14:18:52.879Z,3.40
2022-11-03T14:20:54.461Z,4.03
2022-11-03T14:22:55.924Z,3.97
2022-11-03T14:24:57.861Z,4.05
2022-11-03T14:26:59.485Z,4.03
2022-11-03T14:29:01.193Z,3.90
2022-11-03T14:31:05.422Z,4.22
2022-11-03T14:33:07.083Z,4.00
2022-11-03T14:35:09.206Z,4.10
2022-11-03T14:37:11.416Z,5.10
2022-11-03T14:39:13.175Z,6.65
2022-11-03T14:41:33.475Z,7.90
2022-11-03T14:43:35.412Z,8.40
2022-11-03T14:45:39.830Z,9.52
2022-11-03T14:47:43.959Z,8.75
2022-11-03T14:49:46.422Z,8.75
2022-11-03T14:51:48.080Z,7.85
2022-11-03T14:53:49.738Z,7.28
2022-11-03T14:55:51.209Z,7.63
2022-11-03T14:57:52.736Z,7.40
2022-11-03T14:59:55.599Z,9.57
2022-11-03T15:01:58.446Z,9.52
2022-11-03T15:04:00.222Z,11.40
2022-11-03T15:06:01.806Z,10.93
2022-11-03T15:08:03.269Z,10.95
2022-11-03T15:10:05.106Z,13.20
2022-11-03T15:12:06.810Z,12.88
2022-11-03T15:14:09.247Z,15.68
2022-11-03T15:16:10.746Z,22.65
2022-11-03T15:18:12.403Z,36.38
2022-11-03T15:20:14.114Z,34.80
2022-11-03T15:22:15.888Z,34.05
2022-11-03T15:26:38.863Z,24.08
2022-11-03T15:28:42.269Z,25.05
2022-11-03T15:30:43.775Z,19.10
2022-11-03T15:32:45.435Z,21.77
2022-11-03T15:34:46.916Z,24.73
2022-11-03T15:36:48.364Z,21.38
2022-11-03T15:38:49.900Z,15.55
2022-11-03T15:40:51.367Z,22.58
2022-11-03T15:42:53.326Z,37.13
2022-11-03T15:44:55.004Z,47.60
2022-11-03T15:46:56.461Z,26.95
2022-11-03T15:48:58.074Z,23.52
2022-11-03T15:50:59.563Z,15.07
2022-11-03T15:53:01.099Z,12.05
2022-11-03T15:55:02.906Z,21.05
2022-11-03T15:57:04.472Z,30.80
2022-11-03T15:59:05.978Z,24.90
2022-11-03T16:01:07.844Z,27.17
2022-11-03T16:03:09.514Z,28.00
2022-11-03T16:05:11.344Z,27.67
2022-11-03T16:07:12.906Z,28.75
2022-11-03T16:09:14.354Z,24.92
2022-11-03T16:11:15.885Z,16.65
2022-11-03T16:13:17.359Z,24.85
2022-11-03T16:15:18.813Z,24.75
2022-11-03T16:17:22.401Z,24.63
2022-11-03T16:19:24.131Z,37.30
2022-11-03T16:21:25.599Z,44.95
2022-11-03T16:23:27.110Z,25.00
2022-11-03T16:25:28.609Z,32.17
2022-11-03T16:27:30.225Z,17.05
2022-11-03T16:29:31.805Z,18.77
2022-11-03T16:31:33.251Z,27.25
2022-11-03T16:33:34.898Z,39.28
2022-11-03T16:35:36.383Z,29.08
2022-11-03T16:37:37.926Z,39.70
2022-11-03T16:39:39.370Z,51.13
2022-11-03T16:41:40.843Z,62.03
2022-11-03T16:43:42.458Z,43.40
2022-11-03T16:45:44.008Z,20.65
2022-11-03T16:47:49.955Z,34.83
2022-11-03T16:49:53.035Z,19.48
2022-11-03T16:51:54.834Z,28.10
2022-11-03T16:53:58.206Z,35.65
2022-11-03T16:55:59.667Z,29.42
2022-11-03T16:58:01.255Z,18.58
2022-11-03T17:00:04.176Z,20.65
2022-11-03T17:02:05.940Z,23.83
2022-11-03T17:04:07.495Z,20.55
2022-11-03T17:06:08.947Z,21.30
2022-11-03T17:08:38.558Z,13.65
2022-11-03T17:10:32.031Z,15.90
2022-11-03T17:12:33.647Z,15.05
2022-11-03T17:14:36.229Z,28.58
2022-11-03T17:16:37.712Z,45.10
2022-11-03T17:18:39.234Z,74.25
2022-11-03T17:20:40.695Z,30.40
2022-11-03T17:22:42.268Z,45.85
2022-11-03T17:24:43.923Z,21.17
2022-11-03T17:26:51.512Z,23.70
2022-11-03T17:28:54.370Z,22.02
2022-11-03T17:30:55.888Z,18.88
2022-11-03T17:33:04.970Z,17.52
2022-11-03T17:35:38.633Z,16.60
2022-11-03T17:37:40.968Z,24.10
2022-11-03T17:39:43.122Z,28.52
2022-11-03T17:41:44.598Z,35.20
2022-11-03T17:43:46.115Z,32.75
2022-11-03T17:45:48.142Z,40.03
2022-11-03T17:47:49.888Z,27.23
2022-11-03T17:49:51.747Z,25.02
2022-11-03T17:51:53.847Z,27.30
2022-11-03T17:53:55.546Z,58.97
2022-11-03T17:56:27.716Z,63.72
2022-11-03T17:58:29.871Z,34.63
2022-11-03T18:00:31.490Z,34.88
2022-11-03T18:02:40.860Z,14.80
2022-11-03T18:04:42.380Z,15.02
2022-11-03T18:06:45.514Z,38.33
2022-11-03T18:08:47.959Z,149.18
2022-11-03T18:10:51.893Z,41.08
2022-11-03T18:13:15.438Z,25.60
2022-11-03T18:15:22.440Z,24.40
2022-11-03T18:17:23.963Z,23.50
2022-11-03T18:19:25.544Z,66.53
2022-11-03T18:21:28.569Z,61.85
2022-11-03T18:23:34.656Z,34.42
2022-11-03T18:25:36.138Z,27.45
2022-11-03T18:27:37.618Z,18.23
2022-11-03T18:29:39.074Z,28.98
2022-11-03T18:31:50.482Z,20.63
2022-11-03T18:33:53.517Z,77.10
2022-11-03T18:35:55.467Z,29.60
2022-11-03T18:37:57.088Z,55.00
2022-11-03T18:39:59.250Z,35.95
2022-11-03T18:42:00.781Z,16.25
2022-11-03T18:44:03.122Z,20.45
2022-11-03T18:46:04.672Z,19.08
2022-11-03T18:48:06.170Z,12.20
2022-11-03T18:50:09.997Z,27.40
2022-11-03T18:52:16.233Z,46.95
2022-11-03T18:54:21.044Z,13.60
2022-11-03T18:56:22.939Z,32.50
2022-11-03T18:58:25.808Z,26.65
2022-11-03T19:00:27.355Z,23.50
2022-11-03T19:02:28.834Z,26.15
2022-11-03T19:04:32.142Z,19.85
2022-11-03T19:06:33.791Z,87.60
2022-11-03T19:08:36.431Z,54.13
2022-11-03T19:10:39.570Z,26.42
2022-11-03T19:12:44.287Z,29.83
2022-11-03T19:14:48.158Z,14.18
2022-11-03T19:17:17.154Z,14.10
2022-11-03T19:19:14.399Z,28.17
2022-11-03T19:21:18.441Z,23.92
2022-11-03T19:23:19.952Z,35.03
2022-11-03T19:25:21.538Z,38.08
2022-11-03T19:27:26.432Z,35.47
2022-11-03T19:29:30.952Z,44.55
2022-11-03T19:31:43.519Z,35.35
2022-11-03T19:33:45.018Z,23.88
2022-11-03T19:35:47.271Z,31.67
2022-11-03T19:37:53.338Z,26.17
2022-11-03T19:39:55.870Z,14.32
2022-11-03T19:42:20.149Z,22.58
2022-11-03T19:44:21.770Z,20.83
2022-11-03T19:46:23.311Z,14.18
2022-11-03T19:48:26.700Z,26.20
2022-11-03T19:50:30.731Z,21.13
2022-11-03T19:52:34.555Z,11.70
2022-11-03T19:54:36.002Z,17.20
2022-11-03T19:56:37.574Z,13.98
2022-11-03T19:58:39.011Z,28.45
2022-11-03T20:00:40.792Z,26.85
2022-11-03T20:02:44.340Z,25.90
2022-11-03T20:04:47.378Z,20.25
2022-11-03T20:06:48.871Z,20.15
2022-11-03T20:08:50.518Z,25.88
2022-11-03T20:10:52.752Z,15.20
2022-11-03T20:12:54.406Z,15.95
2022-11-03T20:14:55.863Z,15.93
2022-11-03T20:17:02.338Z,46.95
2022-11-03T20:19:03.854Z,24.73
2022-11-03T20:21:05.717Z,17.70
2022-11-03T20:23:11.719Z,21.25
2022-11-03T20:25:21.169Z,23.35
2022-11-03T20:27:22.624Z,23.48
2022-11-03T20:29:24.207Z,15.18
2022-11-03T20:31:25.724Z,17.38
2022-11-03T20:33:27.206Z,23.88
2022-11-03T20:35:28.811Z,18.90
2022-11-03T20:37:30.267Z,13.13
2022-11-03T20:39:31.775Z,14.82
2022-11-03T20:41:33.295Z,16.73
2022-11-03T20:43:43.486Z,20.67
2022-11-03T20:45:44.987Z,36.60
2022-11-03T20:47:48.300Z,31.90
2022-11-03T20:49:50.069Z,16.90
2022-11-03T20:51:51.686Z,12.65
2022-11-03T20:53:53.580Z,14.38
2022-11-03T20:55:55.148Z,13.18
2022-11-03T20:57:56.661Z,15.10
2022-11-03T20:59:58.135Z,14.45
2022-11-03T21:01:59.800Z,21.60
2022-11-03T21:04:03.209Z,13.65
2022-11-03T21:06:04.689Z,16.92
2022-11-03T21:08:09.818Z,14.15
2022-11-03T21:10:15.510Z,18.67
2022-11-03T21:12:19.552Z,13.98
2022-11-03T21:14:25.600Z,18.33
2022-11-03T21:16:47.673Z,18.98
2022-11-03T21:19:08.034Z,14.10
2022-11-03T21:21:11.310Z,15.70
2022-11-03T21:23:20.530Z,22.00
2022-11-03T21:25:24.037Z,20.42
2022-11-03T21:27:26.059Z,19.90
2022-11-03T21:29:53.477Z,13.82
2022-11-03T21:31:49.013Z,11.73
2022-11-03T21:33:50.502Z,12.85
2022-11-03T21:35:52.338Z,12.98
2022-11-03T21:37:53.805Z,14.25
2022-11-03T21:39:55.238Z,16.23
2022-11-03T21:42:15.969Z,34.88
2022-11-03T21:44:17.487Z,20.08
2022-11-03T21:46:18.930Z,22.73
2022-11-03T21:48:39.253Z,22.23
2022-11-03T21:50:41.363Z,24.85
2022-11-03T21:52:42.808Z,39.95
2022-11-03T21:54:44.584Z,25.98
2022-11-03T21:56:46.938Z,19.55
2022-11-03T21:58:48.423Z,20.48
2022-11-03T22:00:49.933Z,20.48
2022-11-03T22:02:51.536Z,18.50
2022-11-03T22:04:55.416Z,17.73
2022-11-03T22:06:58.680Z,18.20
2022-11-03T22:09:00.124Z,17.98
2022-11-03T22:11:22.478Z,15.45
2022-11-03T22:13:23.941Z,20.48
2022-11-03T22:15:43.902Z,18.42
2022-11-03T22:17:45.394Z,16.92
2022-11-03T22:20:09.823Z,17.52
2022-11-03T22:22:32.950Z,14.40
2022-11-03T22:24:53.435Z,16.15
2022-11-03T22:26:57.517Z,13.32
2022-11-03T22:29:24.635Z,14.98
2022-11-03T22:31:41.061Z,14.10
2022-11-03T22:34:01.324Z,15.45
2022-11-03T22:36:22.095Z,14.25
2022-11-03T22:38:43.626Z,15.40
2022-11-03T22:41:06.003Z,16.63
2022-11-03T22:43:41.029Z,14.35
2022-11-03T22:45:51.547Z,14.10
2022-11-03T22:47:57.353Z,14.02
2022-11-03T22:49:59.264Z,13.18
2022-11-03T22:52:00.830Z,14.93
2022-11-03T22:54:11.422Z,15.02
2022-11-03T22:56:13.336Z,15.63
2022-11-03T22:58:14.953Z,15.00
2022-11-03T23:00:17.372Z,13.25
2022-11-03T23:02:18.995Z,14.88
2022-11-03T23:04:20.537Z,16.38
2022-11-03T23:06:25.105Z,15.68
2022-11-03T23:08:29.560Z,16.85
2022-11-03T23:10:31.524Z,20.23
2022-11-03T23:12:33.294Z,17.52
2022-11-03T23:14:53.236Z,15.75
2022-11-03T23:16:54.674Z,14.35
2022-11-03T23:19:16.198Z,15.30
2022-11-03T23:21:17.669Z,14.63
2022-11-03T23:23:37.706Z,15.73
2022-11-03T23:25:39.232Z,16.23
2022-11-03T23:27:40.659Z,17.33
2022-11-03T23:29:42.147Z,17.83
2022-11-03T23:31:44.984Z,15.38
2022-11-03T23:33:46.720Z,15.18
2022-11-03T23:35:48.182Z,15.02
2022-11-03T23:37:49.655Z,14.98
2022-11-03T23:39:51.083Z,15.95
2022-11-03T23:41:52.537Z,15.38
2022-11-03T23:43:55.242Z,15.50
2022-11-03T23:46:15.517Z,17.13
2022-11-03T23:48:36.676Z,16.88
2022-11-03T23:50:38.834Z,17.30
2022-11-03T23:52:40.338Z,16.55
2022-11-03T23:54:41.773Z,16.80
2022-11-03T23:57:04.529Z,16.42
2022-11-03T23:59:07.330Z,16.98
